Fort Good Hope, Canada
Current Conditions -  °F | °C
As of 6:00 PM on Wednesday 26 Nov 2014 (Local Time) from CYVQ Reporting Station
Blowing Snow Blowing Snow  
Wind Chill: -30°   Ceiling: Unl
Heat Index: -11°   Visibility: 30mi
Dew Point: -15°   Wind: 10mph
Humidity: 84%   Direction: 290°WNW
Pressure: 30.72"   Gusts: NA
Location:  66.27°N, 128.63°W
Report Text: CYVQ 270100Z 29009KT 30SM IC DRSN FEW020 FEW250 M24/M26 A3072 RMK SC1CI1 SC TR SLP414
Loading
Personal Weather Stations






























Interactive Weather Map New forecast layout! Learn more

10-Day Weather Forecast

Advertisements
Track Severe Weather on mobile